Time;durP1;ratioP1;P1;durP2;ratioP2;P2;SDS_P1;SDS_P2;PMS_P1;PMS_P2;Temp;Humidity;BMP_temperature;BMP_pressure;BME280_temperature;BME280_humidity;BME280_pressure;Samples;Min_cycle;Max_cycle;Signal;HPM_P1;HPM_P2
2022/07/16 00:01:38;;;;;;;;;;;;;;;28.36;30.47;97089.03;4251892;27;5610;-81
2022/07/16 00:03:42;;;;;;;;;;;;;;;28.37;30.41;97093.34;4252078;27;5599;-81
2022/07/16 00:05:46;;;;;;;;;;;;;;;28.33;30.06;97089.63;4251587;27;5662;-81
2022/07/16 00:07:49;;;;;;;;;;;;;;;28.32;30.44;97093.47;4251793;27;5669;-81
2022/07/16 00:09:52;;;;;;;;;;;;;;;28.30;30.58;97093.75;4251505;27;5591;-81
2022/07/16 00:11:54;;;;;;;;;;;;;;;28.30;30.48;97091.03;4251372;27;5680;-81
2022/07/16 00:13:57;;;;;;;;;;;;;;;28.26;30.32;97091.91;4251471;27;5679;-81
2022/07/16 00:16:01;;;;;;;;;;;;;;;28.23;30.68;97093.31;4251185;27;6273;-80
2022/07/16 00:20:25;;;;;;;;;;;;;;;28.24;30.34;97097.63;4217784;28;5752;-81
2022/07/16 00:22:29;;;;;;;;;;;;;;;28.23;30.69;97097.94;4217443;28;5597;-81
2022/07/16 00:24:31;;;;;;;;;;;;;;;28.20;30.82;97095.81;4199444;28;5687;-81
2022/07/16 00:26:35;;;;;;;;;;;;;;;28.17;30.98;97099.94;4217146;28;5687;-81
2022/07/16 00:28:38;;;;;;;;;;;;;;;28.18;30.89;97096.09;4217773;28;5612;-81
2022/07/16 00:30:41;;;;;;;;;;;;;;;28.17;30.97;97099.94;4217693;28;6041;-81
2022/07/16 00:32:44;;;;;;;;;;;;;;;28.13;30.74;97097.00;4217389;28;5624;-81
2022/07/16 00:34:48;;;;;;;;;;;;;;;28.10;30.91;97104.97;4217443;28;5700;-81
2022/07/16 00:36:51;;;;;;;;;;;;;;;28.09;30.85;97100.63;4217330;28;5613;-82
2022/07/16 00:38:54;;;;;;;;;;;;;;;28.06;31.11;97095.78;4217402;28;5699;-81
2022/07/16 00:40:57;;;;;;;;;;;;;;;28.05;31.12;97102.31;4216056;28;5660;-81
2022/07/16 00:43:01;;;;;;;;;;;;;;;28.01;31.03;97091.25;4217644;28;5620;-81
2022/07/16 00:45:05;;;;;;;;;;;;;;;28.01;31.21;97098.59;4199684;28;5634;-80
2022/07/16 00:47:08;;;;;;;;;;;;;;;28.01;31.13;97093.16;4217490;28;5624;-81
2022/07/16 00:49:11;;;;;;;;;;;;;;;27.99;31.33;97101.63;4217390;28;5605;-81
2022/07/16 00:51:16;;;;;;;;;;;;;;;27.98;31.10;97101.91;4217471;28;5625;-81
2022/07/16 00:53:19;;;;;;;;;;;;;;;27.95;31.30;97097.06;4217725;28;5616;-80
2022/07/16 00:55:22;;;;;;;;;;;;;;;27.90;31.54;97102.59;4217040;28;5056;-80
2022/07/16 00:57:25;;;;;;;;;;;;;;;27.88;31.51;97096.66;4217520;28;5731;-80
2022/07/16 00:59:28;;;;;;;;;;;;;;;27.88;31.36;97099.38;4217310;28;5768;-81
2022/07/16 01:01:31;;;;;;;;;;;;;;;27.85;31.51;97098.81;4217271;28;6278;-81
2022/07/16 01:03:36;;;;;;;;;;;;;;;27.85;31.48;97104.25;4217525;28;5692;-81
2022/07/16 01:05:39;;;;;;;;;;;;;;;27.84;31.38;97099.94;4217115;28;5613;-81
2022/07/16 01:07:44;;;;;;;;;;;;;;;27.82;31.63;97096.72;4199364;28;5627;-81
2022/07/16 01:09:48;;;;;;;;;;;;;;;27.77;31.81;97096.81;4217015;28;5687;-79
2022/07/16 01:11:52;;;;;;;;;;;;;;;27.79;31.95;97100.03;4216998;28;5692;-81
2022/07/16 01:13:55;;;;;;;;;;;;;;;27.77;31.95;97096.81;4217601;28;5597;-81
2022/07/16 01:15:58;;;;;;;;;;;;;;;27.75;31.82;97099.03;4199122;28;5754;-81
2022/07/16 01:18:01;;;;;;;;;;;;;;;27.70;31.65;97095.56;4216617;28;5700;-82
2022/07/16 01:20:06;;;;;;;;;;;;;;;27.66;32.10;97095.34;4221434;28;5613;-82
2022/07/16 01:22:17;;;;;;;;;;;;;;;27.67;31.80;97094.25;4233915;28;5602;-82
2022/07/16 01:24:21;;;;;;;;;;;;;;;27.67;32.11;97098.88;4234322;28;5637;-81
2022/07/16 01:26:24;;;;;;;;;;;;;;;27.65;31.95;97099.19;4234244;28;5605;-81
2022/07/16 01:28:28;;;;;;;;;;;;;;;27.65;31.90;97098.38;4237291;28;5598;-81
2022/07/16 01:30:31;;;;;;;;;;;;;;;27.65;32.22;97096.47;4237071;28;5700;-81
2022/07/16 01:32:34;;;;;;;;;;;;;;;27.63;32.28;97095.91;4237031;28;5683;-81
2022/07/16 01:34:37;;;;;;;;;;;;;;;27.62;32.07;97105.16;4236976;28;5635;-81
2022/07/16 01:36:40;;;;;;;;;;;;;;;27.63;32.09;97095.91;4237229;28;5598;-81
2022/07/16 01:38:45;;;;;;;;;;;;;;;27.61;32.17;97097.31;4236888;28;5606;-81
2022/07/16 01:40:49;;;;;;;;;;;;;;;27.61;32.16;97097.31;4236742;28;5657;-81
2022/07/16 01:42:52;;;;;;;;;;;;;;;27.59;32.30;97094.06;4236957;28;5606;-82
2022/07/16 01:44:55;;;;;;;;;;;;;;;27.54;32.40;97094.97;4218588;28;5798;-81
2022/07/16 01:46:59;;;;;;;;;;;;;;;27.56;32.29;97090.84;4237038;28;5769;-81
2022/07/16 01:49:03;;;;;;;;;;;;;;;27.56;32.57;97101.72;4236794;28;6298;-81
2022/07/16 01:51:06;;;;;;;;;;;;;;;27.56;32.70;97095.47;4236820;28;5696;-81
2022/07/16 01:53:10;;;;;;;;;;;;;;;27.53;32.36;97096.88;4236638;28;6400;-82
2022/07/16 01:55:13;;;;;;;;;;;;;;;27.50;32.31;97097.44;4236286;28;8440;-82
2022/07/16 01:57:19;;;;;;;;;;;;;;;27.48;32.49;97093.41;4236876;28;5695;-81
2022/07/16 01:59:22;;;;;;;;;;;;;;;27.48;32.74;97088.78;4237027;28;5605;-80
2022/07/16 02:01:25;;;;;;;;;;;;;;;27.48;32.73;97099.66;4236955;28;5072;-81
2022/07/16 02:03:28;;;;;;;;;;;;;;;27.46;32.68;97091.00;4236553;28;5677;-81
2022/07/16 02:05:31;;;;;;;;;;;;;;;27.46;32.74;97091.00;4236581;28;5689;-81
2022/07/16 02:07:34;;;;;;;;;;;;;;;27.44;32.90;97087.78;4236446;28;5597;-81
2022/07/16 02:09:37;;;;;;;;;;;;;;;27.43;32.99;97096.22;4236834;28;5853;-81
2022/07/16 02:11:40;;;;;;;;;;;;;;;27.43;32.63;97086.16;4236062;28;5586;-82
2022/07/16 02:13:45;;;;;;;;;;;;;;;27.43;32.69;97085.38;4236419;28;5598;-81
2022/07/16 02:15:48;;;;;;;;;;;;;;;27.42;33.05;97089.19;4236944;28;5593;-81
2022/07/16 02:17:51;;;;;;;;;;;;;;;27.39;32.79;97090.56;4235755;28;5617;-81
2022/07/16 02:19:54;;;;;;;;;;;;;;;27.39;32.92;97090.56;4236952;28;6291;-81
2022/07/16 02:21:57;;;;;;;;;;;;;;;27.38;33.02;97088.13;4236313;28;5696;-81
2022/07/16 02:24:00;;;;;;;;;;;;;;;27.36;33.12;97093.88;4236201;28;5657;-81
2022/07/16 02:26:03;;;;;;;;;;;;;;;27.35;32.90;97088.72;4235916;28;6328;-81
2022/07/16 02:28:09;;;;;;;;;;;;;;;27.37;32.86;97092.75;4236444;28;5605;-81
2022/07/16 02:30:13;;;;;;;;;;;;;;;27.37;33.01;97092.75;4221117;27;5681;-81
2022/07/16 02:32:16;;;;;;;;;;;;;;;27.36;32.72;97083.00;4219265;28;6189;-81
2022/07/16 02:34:19;;;;;;;;;;;;;;;27.34;33.09;97082.50;4232624;28;5666;-81
2022/07/16 02:36:22;;;;;;;;;;;;;;;27.33;32.89;97090.94;4236088;28;5586;-81
2022/07/16 02:38:25;;;;;;;;;;;;;;;27.30;32.95;97096.97;4217468;28;5628;-82
2022/07/16 02:40:28;;;;;;;;;;;;;;;27.28;32.90;97097.22;4235793;28;5613;-81
2022/07/16 02:42:32;;;;;;;;;;;;;;;27.25;33.19;97089.69;4235934;28;5696;-81
2022/07/16 02:44:34;;;;;;;;;;;;;;;27.22;33.43;97091.09;4217972;28;5628;-81
2022/07/16 02:46:39;;;;;;;;;;;;;;;27.21;33.47;97092.19;4235824;28;5705;-81
2022/07/16 02:48:42;;;;;;;;;;;;;;;27.21;33.16;97097.63;4236140;28;5606;-81
2022/07/16 02:50:45;;;;;;;;;;;;;;;27.20;33.41;97093.28;4235815;28;5621;-81
2022/07/16 02:52:48;;;;;;;;;;;;;;;27.21;33.44;97094.09;4217818;28;5841;-81
2022/07/16 02:54:52;;;;;;;;;;;;;;;27.20;33.38;97098.72;4217774;28;5635;-81
2022/07/16 02:56:55;;;;;;;;;;;;;;;27.20;33.58;97093.28;4235512;28;7227;-81
2022/07/16 02:58:58;;;;;;;;;;;;;;;27.17;33.47;97091.13;4235715;28;5597;-81
2022/07/16 03:01:01;;;;;;;;;;;;;;;27.13;33.27;97092.81;4235712;28;5597;-81
2022/07/16 03:03:06;;;;;;;;;;;;;;;27.07;33.51;97093.19;4235532;28;5590;-82
2022/07/16 03:05:10;;;;;;;;;;;;;;;27.02;33.71;97090.53;4235864;28;5601;-82
2022/07/16 03:07:13;;;;;;;;;;;;;;;27.04;33.69;97085.63;4235329;28;5610;-81
2022/07/16 03:09:15;;;;;;;;;;;;;;;27.02;33.36;97091.34;4235580;28;5610;-82
2022/07/16 03:11:18;;;;;;;;;;;;;;;27.01;33.39;97092.41;4235194;28;5586;-81
2022/07/16 03:13:21;;;;;;;;;;;;;;;26.99;33.23;97097.34;4234790;28;5821;-81
2022/07/16 03:15:24;;;;;;;;;;;;;;;26.98;33.47;97101.16;4235601;28;5538;-81
2022/07/16 03:17:27;;;;;;;;;;;;;;;26.95;33.56;97101.72;4235667;28;5525;-82
2022/07/16 03:19:32;;;;;;;;;;;;;;;26.92;33.50;97096.88;4217149;28;5629;-82
2022/07/16 03:21:35;;;;;;;;;;;;;;;26.90;33.55;97093.66;4235292;28;5601;-82
2022/07/16 03:23:38;;;;;;;;;;;;;;;26.91;33.79;97097.97;4235378;28;5538;-80
2022/07/16 03:25:42;;;;;;;;;;;;;;;26.89;33.80;97102.88;4235041;28;5506;-81
2022/07/16 03:27:46;;;;;;;;;;;;;;;26.89;33.52;97102.88;4235626;28;5698;-81
2022/07/16 03:29:48;;;;;;;;;;;;;;;26.90;33.78;97099.06;4216926;28;5617;-81
2022/07/16 03:31:52;;;;;;;;;;;;;;;26.89;33.78;97103.69;4235537;28;5509;-81
2022/07/16 03:33:54;;;;;;;;;;;;;;;26.90;33.98;97101.78;4235130;28;5577;-82
2022/07/16 03:35:59;;;;;;;;;;;;;;;26.87;33.86;97105.09;4235302;28;5507;-81
2022/07/16 03:40:22;;;;;;;;;;;;;;;26.84;34.02;97103.78;4234811;28;5577;-80
2022/07/16 03:42:25;;;;;;;;;;;;;;;26.83;33.90;97110.25;4235233;28;6286;-81
2022/07/16 03:44:28;;;;;;;;;;;;;;;26.81;33.82;97108.94;4235158;28;5691;-80
2022/07/16 03:46:31;;;;;;;;;;;;;;;26.80;33.69;97110.03;4234920;28;5507;-81
2022/07/16 03:48:34;;;;;;;;;;;;;;;26.80;33.79;97104.63;4234989;28;5601;-81
2022/07/16 03:50:37;;;;;;;;;;;;;;;26.77;33.72;97102.50;4234183;28;5533;-81
2022/07/16 03:52:42;;;;;;;;;;;;;;;26.78;33.90;97101.41;4236059;28;5800;-82
2022/07/16 03:54:44;;;;;;;;;;;;;;;26.75;33.80;97112.84;4236381;28;5570;-82
2022/07/16 03:56:47;;;;;;;;;;;;;;;26.72;33.92;97110.69;4235994;28;5521;-82
2022/07/16 03:58:50;;;;;;;;;;;;;;;26.70;34.04;97111.78;4235176;28;5554;-82
2022/07/16 04:00:53;;;;;;;;;;;;;;;26.72;33.79;97119.63;4236936;28;5510;-82
2022/07/16 04:02:56;;;;;;;;;;;;;;;26.69;33.87;97112.88;4236902;28;5509;-82
2022/07/16 04:04:59;;;;;;;;;;;;;;;26.70;33.96;97114.50;4235971;28;5615;-82
2022/07/16 04:07:03;;;;;;;;;;;;;;;26.70;34.08;97119.91;4235978;28;5498;-82
2022/07/16 04:09:07;;;;;;;;;;;;;;;26.70;33.79;97111.78;4234522;28;5585;-82
2022/07/16 04:11:10;;;;;;;;;;;;;;;26.70;33.98;97117.19;4234648;28;5590;-82
2022/07/16 04:13:16;;;;;;;;;;;;;;;26.69;34.13;97118.28;4234391;28;5509;-82
2022/07/16 04:15:19;;;;;;;;;;;;;;;26.67;33.93;97116.97;4216387;28;5625;-82
2022/07/16 04:17:25;;;;;;;;;;;;;;;26.66;34.28;97120.78;4234077;28;5815;-82
2022/07/16 04:19:29;;;;;;;;;;;;;;;26.63;33.98;97121.38;4234323;28;5613;-82
2022/07/16 04:21:32;;;;;;;;;;;;;;;26.64;34.16;97123.78;4234554;28;5602;-82
2022/07/16 04:23:36;;;;;;;;;;;;;;;26.64;34.19;97129.22;4234699;28;5597;-81
2022/07/16 04:25:40;;;;;;;;;;;;;;;26.62;34.08;97122.47;4234316;28;5594;-81
2022/07/16 04:27:44;;;;;;;;;;;;;;;26.61;34.37;97129.75;4234735;28;5598;-81
2022/07/16 04:29:47;;;;;;;;;;;;;;;26.62;34.10;97125.19;4216346;28;5802;-82
2022/07/16 04:31:50;;;;;;;;;;;;;;;26.59;34.34;97126.53;4234438;28;5661;-81
2022/07/16 04:33:53;;;;;;;;;;;;;;;26.59;34.07;97125.72;4234459;28;5599;-82
2022/07/16 04:35:56;;;;;;;;;;;;;;;26.57;34.09;97130.63;4234429;28;5754;-81
2022/07/16 04:37:59;;;;;;;;;;;;;;;26.55;34.06;97136.34;4234428;28;5602;-82
2022/07/16 04:40:03;;;;;;;;;;;;;;;26.51;34.03;97132.63;4234508;28;5610;-80
2022/07/16 04:42:07;;;;;;;;;;;;;;;26.48;34.23;97129.66;4234386;28;5598;-81
2022/07/16 04:44:10;;;;;;;;;;;;;;;26.48;34.14;97133.16;4234570;28;6339;-81
2022/07/16 04:46:13;;;;;;;;;;;;;;;26.45;34.03;97132.94;4234343;28;5614;-81
2022/07/16 04:48:16;;;;;;;;;;;;;;;26.47;34.43;97134.25;4234463;28;5590;-82
2022/07/16 04:50:19;;;;;;;;;;;;;;;26.48;34.46;97135.88;4234744;28;5661;-80
2022/07/16 04:52:30;;;;;;;;;;;;;;;26.48;34.11;97125.03;4234566;28;5594;-81
2022/07/16 04:54:33;;;;;;;;;;;;;;;26.48;34.17;97122.31;4234476;28;5783;-81
2022/07/16 04:56:36;;;;;;;;;;;;;;;26.50;34.49;97127.44;4215854;28;5609;-81
2022/07/16 04:58:40;;;;;;;;;;;;;;;26.48;34.53;97133.16;4216563;28;5641;-80
2022/07/16 05:00:43;;;;;;;;;;;;;;;26.46;34.73;97127.22;4235244;28;5107;-82
2022/07/16 05:02:57;;;;;;;;;;;;;;;26.51;34.50;97129.91;4237864;28;5701;-81
2022/07/16 05:05:01;;;;;;;;;;;;;;;26.51;34.75;97124.47;4237618;28;5685;-81
2022/07/16 05:07:05;;;;;;;;;;;;;;;26.52;34.24;97126.09;4237439;28;5761;-81
2022/07/16 05:09:08;;;;;;;;;;;;;;;26.52;34.45;97125.28;4237719;28;5657;-81
2022/07/16 05:11:11;;;;;;;;;;;;;;;26.57;34.61;97131.44;4237354;28;5685;-81
2022/07/16 05:13:13;;;;;;;;;;;;;;;26.62;34.29;97128.69;4236899;28;5517;-81
2022/07/16 05:15:18;;;;;;;;;;;;;;;26.62;34.27;97136.84;4219353;28;5068;-83
2022/07/16 05:17:21;;;;;;;;;;;;;;;26.63;34.59;97138.44;4237090;28;5513;-82
2022/07/16 05:19:25;;;;;;;;;;;;;;;26.64;34.78;97136.53;4237395;28;5522;-82
2022/07/16 05:21:28;;;;;;;;;;;;;;;26.59;34.60;97131.97;4237486;28;5498;-82
2022/07/16 05:23:31;;;;;;;;;;;;;;;26.60;34.42;97138.19;4237519;28;5506;-82
2022/07/16 05:25:34;;;;;;;;;;;;;;;26.61;34.71;97139.81;4237191;28;5615;-81
2022/07/16 05:27:38;;;;;;;;;;;;;;;26.63;34.66;97143.06;4219043;28;7667;-81
2022/07/16 05:29:42;;;;;;;;;;;;;;;26.64;35.01;97141.97;4237471;28;5605;-81
2022/07/16 05:31:47;;;;;;;;;;;;;;;26.56;34.71;97127.13;4237125;28;5510;-82
2022/07/16 05:33:49;;;;;;;;;;;;;;;26.66;34.88;97143.28;4237176;28;5506;-82
2022/07/16 05:35:53;;;;;;;;;;;;;;;26.68;34.68;97146.50;4218834;28;5668;-81
2022/07/16 05:37:56;;;;;;;;;;;;;;;26.76;34.74;97144.28;4237192;28;5521;-82
2022/07/16 05:40:01;;;;;;;;;;;;;;;26.90;34.54;97147.91;4237298;28;5506;-82
2022/07/16 05:42:05;;;;;;;;;;;;;;;27.03;34.68;97147.22;4218533;28;5617;-82
2022/07/16 05:44:08;;;;;;;;;;;;;;;27.12;34.67;97150.91;4237094;28;5506;-79
2022/07/16 05:46:12;;;;;;;;;;;;;;;27.27;34.58;97158.03;4236955;28;5499;-81
2022/07/16 05:48:17;;;;;;;;;;;;;;;27.41;34.31;97153.53;4236924;28;5494;-81
2022/07/16 05:50:20;;;;;;;;;;;;;;;27.54;34.23;97152.00;4237361;28;5538;-81
2022/07/16 05:52:23;;;;;;;;;;;;;;;27.73;34.19;97154.72;4236988;28;5498;-81
2022/07/16 05:54:26;;;;;;;;;;;;;;;27.85;34.02;97150.44;4237104;28;7608;-82
2022/07/16 05:56:29;;;;;;;;;;;;;;;28.00;33.92;97157.56;4236382;28;5506;-81
2022/07/16 05:58:32;;;;;;;;;;;;;;;28.13;33.55;97156.00;4236980;28;5521;-81
2022/07/16 06:00:36;;;;;;;;;;;;;;;28.27;33.63;97151.44;4218485;28;5620;-81
2022/07/16 06:02:39;;;;;;;;;;;;;;;28.36;33.52;97149.66;4236703;28;5526;-81
2022/07/16 06:04:43;;;;;;;;;;;;;;;28.45;33.56;97157.13;4236643;28;5506;-81
2022/07/16 06:06:46;;;;;;;;;;;;;;;28.51;33.45;97148.56;4236539;28;5517;-81
2022/07/16 06:08:49;;;;;;;;;;;;;;;28.60;33.29;97156.84;4236786;28;5503;-81
2022/07/16 06:10:52;;;;;;;;;;;;;;;28.62;33.28;97155.44;4218151;28;5629;-80
2022/07/16 06:12:55;;;;;;;;;;;;;;;28.66;33.15;97147.50;4217425;28;7691;-81
2022/07/16 06:14:58;;;;;;;;;;;;;;;28.72;33.33;97149.00;4236819;28;6152;-81
2022/07/16 06:17:01;;;;;;;;;;;;;;;28.83;33.01;97155.03;4236137;28;5243;-82
2022/07/16 06:19:04;;;;;;;;;;;;;;;28.89;32.96;97159.31;4236502;28;5566;-80
2022/07/16 06:21:08;;;;;;;;;;;;;;;28.89;32.97;97165.56;4236318;28;5510;-81
2022/07/16 06:23:11;;;;;;;;;;;;;;;28.94;32.77;97157.28;4236909;28;5758;-81
2022/07/16 06:25:15;;;;;;;;;;;;;;;28.98;32.74;97163.72;4236185;28;5562;-79
2022/07/16 06:27:18;;;;;;;;;;;;;;;29.02;32.59;97163.16;4236653;28;5513;-80
2022/07/16 06:29:21;;;;;;;;;;;;;;;29.05;32.63;97160.63;4226395;28;5740;-81
2022/07/16 06:31:24;;;;;;;;;;;;;;;29.07;32.55;97163.84;4225638;28;5597;-81
2022/07/16 06:33:27;;;;;;;;;;;;;;;29.08;32.58;97167.38;4203557;28;5613;-82
2022/07/16 06:35:30;;;;;;;;;;;;;;;29.11;32.50;97166.75;4226124;28;5605;-81
2022/07/16 06:37:34;;;;;;;;;;;;;;;29.15;32.05;97167.78;4228776;28;5697;-81
2022/07/16 06:39:38;;;;;;;;;;;;;;;29.18;32.39;97170.69;4232800;28;5689;-81
2022/07/16 06:41:41;;;;;;;;;;;;;;;29.21;32.24;97164.63;4225001;28;5628;-81
2022/07/16 06:43:45;;;;;;;;;;;;;;;29.23;32.38;97167.88;4221827;28;5735;-81
2022/07/16 06:45:48;;;;;;;;;;;;;;;29.24;32.40;97165.97;4227003;28;5179;-80
2022/07/16 06:47:51;;;;;;;;;;;;;;;29.25;32.23;97162.13;4233058;28;5685;-80
2022/07/16 06:49:54;;;;;;;;;;;;;;;29.28;32.21;97167.75;4220145;28;5704;-81
2022/07/16 06:51:57;;;;;;;;;;;;;;;29.27;32.25;97166.16;4227057;28;6333;-81
2022/07/16 06:54:01;;;;;;;;;;;;;;;29.29;32.36;97168.56;4234752;28;5605;-81
2022/07/16 06:56:06;;;;;;;;;;;;;;;29.28;32.23;97166.94;4215745;28;5814;-81
2022/07/16 06:58:09;;;;;;;;;;;;;;;29.31;32.21;97170.97;4232295;28;5601;-81
2022/07/16 07:00:13;;;;;;;;;;;;;;;29.31;32.35;97174.50;4234552;28;5605;-81
2022/07/16 07:02:16;;;;;;;;;;;;;;;29.27;32.20;97176.22;4209061;28;5780;-81
2022/07/16 07:04:19;;;;;;;;;;;;;;;29.21;32.35;97174.72;4217657;28;5805;-81
2022/07/16 07:06:22;;;;;;;;;;;;;;;29.15;32.38;97178.66;4217212;28;5723;-81
2022/07/16 07:08:26;;;;;;;;;;;;;;;29.11;32.30;97170.31;4216932;28;5840;-81
2022/07/16 07:10:30;;;;;;;;;;;;;;;29.09;32.42;97174.41;4217034;28;5838;-81
2022/07/16 07:12:34;;;;;;;;;;;;;;;29.05;32.36;97179.66;4222225;27;5712;-81
2022/07/16 07:14:37;;;;;;;;;;;;;;;28.99;32.50;97169.97;4233563;28;5697;-81
2022/07/16 07:16:40;;;;;;;;;;;;;;;28.92;32.48;97173.13;4232575;28;5708;-81
2022/07/16 07:18:47;;;;;;;;;;;;;;;28.86;32.58;97171.56;4232670;28;5708;-81
2022/07/16 07:20:50;;;;;;;;;;;;;;;28.80;32.32;97170.06;4232837;28;5096;-81
2022/07/16 07:22:53;;;;;;;;;;;;;;;28.79;32.40;97178.53;4232184;28;5705;-81
2022/07/16 07:24:56;;;;;;;;;;;;;;;28.80;32.40;97178.22;4231753;28;5074;-81
2022/07/16 07:27:00;;;;;;;;;;;;;;;28.78;32.33;97174.19;4232306;28;5697;-81
2022/07/16 07:29:03;;;;;;;;;;;;;;;28.76;32.48;97181.84;4232794;28;5246;-81
2022/07/16 07:31:06;;;;;;;;;;;;;;;28.74;32.49;97182.13;4214055;28;5810;-81
2022/07/16 07:33:10;;;;;;;;;;;;;;;28.75;32.50;97174.78;4232266;28;5792;-80
2022/07/16 07:35:12;;;;;;;;;;;;;;;28.71;32.49;97177.31;4213860;28;5728;-81
2022/07/16 07:37:15;;;;;;;;;;;;;;;28.62;32.55;97181.81;4232212;28;5744;-80
2022/07/16 07:39:18;;;;;;;;;;;;;;;28.51;32.66;97174.94;4232246;28;5689;-81
2022/07/16 07:41:21;;;;;;;;;;;;;;;28.48;32.59;97181.81;4231937;28;5709;-80
2022/07/16 07:43:26;;;;;;;;;;;;;;;28.37;32.79;97172.19;4232147;28;6304;-80
2022/07/16 07:45:31;;;;;;;;;;;;;;;28.27;33.06;97185.94;4232267;28;5772;-80
2022/07/16 07:47:34;;;;;;;;;;;;;;;28.18;33.05;97185.81;4232042;28;5700;-81
2022/07/16 07:49:37;;;;;;;;;;;;;;;28.12;33.00;97174.22;4212584;28;5779;-81
2022/07/16 07:51:45;;;;;;;;;;;;;;;28.11;33.17;97183.47;4232006;28;6559;-80
2022/07/16 07:53:48;;;;;;;;;;;;;;;28.13;33.48;97175.03;4232241;28;5692;-80
2022/07/16 07:55:51;;;;;;;;;;;;;;;28.13;33.29;97180.47;4231851;28;5713;-79
2022/07/16 07:57:55;;;;;;;;;;;;;;;28.09;33.36;97176.72;4231886;28;5705;-79
2022/07/16 07:59:59;;;;;;;;;;;;;;;28.09;33.39;97179.44;4231983;28;5794;-79
2022/07/16 08:02:02;;;;;;;;;;;;;;;28.06;33.73;97183.53;4231968;28;5701;-80
2022/07/16 08:04:05;;;;;;;;;;;;;;;28.07;33.63;97181.63;4232089;28;5083;-80
2022/07/16 08:06:08;;;;;;;;;;;;;;;28.08;33.88;97188.69;4231850;28;5861;-80
2022/07/16 08:08:11;;;;;;;;;;;;;;;28.06;34.04;97174.59;4231853;28;5704;-80
2022/07/16 08:10:15;;;;;;;;;;;;;;;28.07;34.10;97181.63;4231831;28;5859;-78
2022/07/16 08:12:18;;;;;;;;;;;;;;;28.07;33.88;97187.06;4231050;27;5584;-79
2022/07/16 08:14:21;;;;;;;;;;;;;;;28.06;34.23;97185.47;4222727;28;5723;-79
2022/07/16 08:16:30;;;;;;;;;;;;;;;28.04;34.30;97180.31;4230189;28;5689;-79
2022/07/16 08:18:34;;;;;;;;;;;;;;;28.06;34.23;97178.09;4215523;28;5719;-79
2022/07/16 08:20:38;;;;;;;;;;;;;;;28.08;34.77;97180.53;4213680;28;6418;-79
2022/07/16 08:22:41;;;;;;;;;;;;;;;28.11;34.70;97182.69;4214400;28;5786;-80
2022/07/16 08:27:06;;;;;;;;;;;;;;;28.07;34.64;97178.91;4215290;28;5751;-80
2022/07/16 08:29:09;;;;;;;;;;;;;;;28.06;34.85;97185.47;4196815;28;5742;-80
2022/07/16 08:31:13;;;;;;;;;;;;;;;28.08;35.06;97180.53;4231658;28;5693;-80
2022/07/16 08:33:17;;;;;;;;;;;;;;;28.11;35.30;97178.03;4216069;28;5712;-80
2022/07/16 08:35:23;;;;;;;;;;;;;;;28.10;35.34;97181.06;4215851;28;5740;-80
2022/07/16 08:37:33;;;;;;;;;;;;;;;28.07;35.30;97179.72;4224964;28;5718;-80
2022/07/16 08:39:39;;;;;;;;;;;;;;;28.09;35.22;97174.00;4230435;28;6425;-80
2022/07/16 08:41:44;;;;;;;;;;;;;;;28.11;35.49;97178.03;4233636;27;5727;-80
2022/07/16 08:43:47;;;;;;;;;;;;;;;28.12;35.56;97176.94;4227501;28;5653;-81
2022/07/16 08:45:54;;;;;;;;;;;;;;;28.16;35.50;97174.44;4210593;28;5835;-80
2022/07/16 08:47:57;;;;;;;;;;;;;;;28.16;35.36;97176.34;4234329;28;5778;-80
2022/07/16 08:50:03;;;;;;;;;;;;;;;28.15;35.48;97172.81;4235058;28;5797;-81
2022/07/16 08:52:08;;;;;;;;;;;;;;;28.15;35.71;97178.25;4215309;28;5652;-80
2022/07/16 08:54:14;;;;;;;;;;;;;;;28.14;35.95;97171.19;4219899;28;5803;-80
2022/07/16 08:56:18;;;;;;;;;;;;;;;28.13;35.84;97169.59;4229015;28;5769;-80
2022/07/16 08:58:21;;;;;;;;;;;;;;;28.17;35.85;97176.03;4217855;28;6449;-81
2022/07/16 09:00:24;;;;;;;;;;;;;;;28.14;35.85;97171.19;4224864;28;5693;-79
2022/07/16 09:02:28;;;;;;;;;;;;;;;28.11;35.85;97169.88;4220364;28;5929;-79
2022/07/16 09:04:31;;;;;;;;;;;;;;;28.13;35.97;97164.16;4220952;28;5723;-79
2022/07/16 09:06:36;;;;;;;;;;;;;;;28.17;35.96;97167.88;4217840;28;5715;-80
2022/07/16 09:08:39;;;;;;;;;;;;;;;28.19;35.98;97168.38;4217917;28;5790;-81
2022/07/16 09:10:42;;;;;;;;;;;;;;;28.21;35.87;97168.91;4219901;28;5835;-81
2022/07/16 09:12:46;;;;;;;;;;;;;;;28.15;35.99;97170.09;4230568;28;5697;-80
2022/07/16 09:14:49;;;;;;;;;;;;;;;28.13;35.72;97175.03;4232158;28;5725;-81
2022/07/16 09:16:54;;;;;;;;;;;;;;;28.12;35.78;97176.94;4217205;28;5829;-81
2022/07/16 09:19:07;;;;;;;;;;;;;;;28.16;35.82;97177.16;4217329;28;5718;-81
2022/07/16 09:21:10;;;;;;;;;;;;;;;28.19;35.91;97173.00;4217205;28;5734;-80
2022/07/16 09:23:23;;;;;;;;;;;;;;;28.19;35.81;97173.81;4217765;28;5810;-80
2022/07/16 09:25:26;;;;;;;;;;;;;;;28.20;35.77;97174.63;4220646;28;5715;-80
2022/07/16 09:27:29;;;;;;;;;;;;;;;28.25;35.87;97171.84;4223191;28;7809;-80
2022/07/16 09:29:37;;;;;;;;;;;;;;;28.28;35.77;97163.91;4231841;28;5796;-80
2022/07/16 09:31:42;;;;;;;;;;;;;;;28.30;35.99;97169.06;4219334;28;5807;-81
2022/07/16 09:34:00;;;;;;;;;;;;;;;28.32;36.03;97173.13;4218148;28;5722;-81
2022/07/16 09:36:10;;;;;;;;;;;;;;;28.28;35.77;97161.19;4232070;28;5083;-81
2022/07/16 09:38:14;;;;;;;;;;;;;;;28.35;35.99;97168.97;4230192;28;5712;-81
2022/07/16 09:40:31;;;;;;;;;;;;;;;28.32;35.84;97166.88;4225778;28;5716;-81
2022/07/16 09:42:38;;;;;;;;;;;;;;;28.32;36.00;97166.88;4219697;28;5730;-81
2022/07/16 09:44:43;;;;;;;;;;;;;;;28.32;36.04;97164.16;4199257;28;5777;-81
2022/07/16 09:47:04;;;;;;;;;;;;;;;28.37;36.00;97164.84;4223685;28;5748;-80
2022/07/16 09:49:07;;;;;;;;;;;;;;;28.40;35.95;97158.81;4219073;28;5762;-80
2022/07/16 09:51:19;;;;;;;;;;;;;;;28.42;35.86;97159.31;4216827;27;5876;-74
2022/07/16 09:53:24;;;;;;;;;;;;;;;28.44;35.89;97156.31;4223324;28;5703;-76
2022/07/16 09:55:28;;;;;;;;;;;;;;;28.46;35.88;97162.25;4202654;28;6411;-75
2022/07/16 09:57:31;;;;;;;;;;;;;;;28.46;36.09;97161.47;4224828;28;5703;-75
2022/07/16 09:59:35;;;;;;;;;;;;;;;28.41;35.93;97165.84;4218124;28;5820;-76
2022/07/16 10:01:58;;;;;;;;;;;;;;;28.44;36.09;97158.22;4217149;28;5733;-75
2022/07/16 10:04:01;;;;;;;;;;;;;;;28.45;36.17;97160.66;4216687;28;5727;-76
2022/07/16 10:06:04;;;;;;;;;;;;;;;28.44;36.34;97160.97;4223263;28;5705;-75
2022/07/16 10:08:08;;;;;;;;;;;;;;;28.45;36.29;97162.56;4231541;28;5721;-75
2022/07/16 10:10:12;;;;;;;;;;;;;;;28.44;36.36;97153.59;4214248;28;5724;-72
2022/07/16 10:12:19;;;;;;;;;;;;;;;28.49;36.21;97160.84;4223563;27;7571;-72
2022/07/16 10:14:22;;;;;;;;;;;;;;;28.49;36.21;97161.66;4215487;28;5808;-79
2022/07/16 10:16:46;;;;;;;;;;;;;;;28.49;36.22;97160.84;4215264;28;5800;-72
2022/07/16 10:18:58;;;;;;;;;;;;;;;28.53;36.21;97161.84;4195360;28;5866;-74
2022/07/16 10:21:04;;;;;;;;;;;;;;;28.57;36.16;97162.88;4216631;28;5711;-74
2022/07/16 10:23:07;;;;;;;;;;;;;;;28.59;36.09;97166.91;4199402;28;5765;-77
2022/07/16 10:25:16;;;;;;;;;;;;;;;28.59;35.93;97160.66;4219012;28;5621;-84
2022/07/16 10:27:24;;;;;;;;;;;;;;;28.60;36.16;97163.09;4220097;28;5784;-84
2022/07/16 10:29:41;;;;;;;;;;;;;;;28.58;36.06;97168.03;4218804;28;5719;-84
2022/07/16 10:32:27;;;;;;;;;;;;;;;28.55;36.08;97159.66;4230551;28;5769;-84
2022/07/16 10:34:39;;;;;;;;;;;;;;;28.55;36.40;97154.22;4222388;27;5626;-84
2022/07/16 10:36:46;;;;;;;;;;;;;;;28.57;36.19;97157.44;4234219;28;5704;-84
2022/07/16 10:39:04;;;;;;;;;;;;;;;28.57;36.39;97152.00;4234106;28;5717;-84
2022/07/16 10:41:10;;;;;;;;;;;;;;;28.59;36.47;97157.94;4234100;28;5717;-84
2022/07/16 10:43:17;;;;;;;;;;;;;;;28.58;36.30;97157.13;4225651;28;5711;-79
2022/07/16 10:45:21;;;;;;;;;;;;;;;28.58;36.19;97159.06;4225535;28;5708;-77
2022/07/16 10:47:45;;;;;;;;;;;;;;;28.61;36.13;97159.25;4204259;28;5754;-76
2022/07/16 10:50:13;;;;;;;;;;;;;;;28.65;35.93;97160.28;4224141;28;6421;-69
2022/07/16 10:52:18;;;;;;;;;;;;;;;28.67;36.12;97159.97;4217971;28;5731;-75
2022/07/16 10:54:22;;;;;;;;;;;;;;;28.68;36.19;97158.88;4227811;28;5700;-74
2022/07/16 10:56:33;;;;;;;;;;;;;;;28.67;36.00;97157.25;4227418;28;5728;-77
2022/07/16 10:58:37;;;;;;;;;;;;;;;28.69;35.99;97155.03;4217784;28;5704;-70
2022/07/16 11:00:40;;;;;;;;;;;;;;;28.70;35.98;97153.94;4207854;28;5827;-68
2022/07/16 11:02:44;;;;;;;;;;;;;;;28.71;35.70;97152.81;4229286;28;5708;-68
2022/07/16 11:05:07;;;;;;;;;;;;;;;28.77;35.66;97154.34;4220588;28;5709;-71